Time;durP1;ratioP1;P1;durP2;ratioP2;P2;SDS_P1;SDS_P2;PMS_P1;PMS_P2;Temp;Humidity;BMP_temperature;BMP_pressure;BME280_temperature;BME280_humidity;BME280_pressure;Samples;Min_cycle;Max_cycle;Signal;HPM_P1;HPM_P2
2023/04/21 00:00:09;;;;;;;32.63;25.87;;;7.10;99.90;;;;;;5058822;28;20472;-63
2023/04/21 00:02:38;;;;;;;32.90;25.30;;;7.00;99.90;;;;;;5059393;28;20553;-63
2023/04/21 00:05:08;;;;;;;31.07;25.43;;;7.10;99.90;;;;;;5076657;28;20459;-64
2023/04/21 00:07:36;;;;;;;31.13;24.93;;;7.10;99.90;;;;;;5078762;28;20765;-64
2023/04/21 00:10:04;;;;;;;29.13;25.30;;;7.10;99.90;;;;;;5078686;28;20465;-63
2023/04/21 00:12:32;;;;;;;32.83;26.10;;;7.00;99.90;;;;;;5078761;28;20468;-63
2023/04/21 00:15:00;;;;;;;34.90;27.07;;;7.10;99.90;;;;;;5078866;28;20575;-65
2023/04/21 00:17:27;;;;;;;34.10;25.97;;;7.00;99.90;;;;;;5079185;28;20462;-65
2023/04/21 00:19:55;;;;;;;30.00;25.57;;;7.10;99.90;;;;;;5078683;28;20462;-66
2023/04/21 00:22:22;;;;;;;32.90;24.97;;;6.90;99.90;;;;;;5078585;28;20557;-67
2023/04/21 00:24:49;;;;;;;33.47;26.50;;;6.90;99.90;;;;;;5078639;28;20560;-67
2023/04/21 00:27:16;;;;;;;35.40;27.13;;;6.90;99.90;;;;;;5078240;28;20485;-67
2023/04/21 00:29:43;;;;;;;37.37;27.83;;;6.90;99.90;;;;;;5078371;28;20495;-67
2023/04/21 00:32:12;;;;;;;36.60;27.00;;;7.00;99.90;;;;;;5077939;28;20462;-67
2023/04/21 00:34:39;;;;;;;34.73;27.50;;;7.00;99.90;;;;;;5078580;28;20940;-67
2023/04/21 00:37:06;;;;;;;37.53;28.50;;;7.00;99.90;;;;;;5078331;28;20846;-66
2023/04/21 00:39:34;;;;;;;34.37;26.47;;;7.00;99.90;;;;;;5078058;28;20523;-65
2023/04/21 00:42:01;;;;;;;36.87;28.47;;;7.00;99.90;;;;;;5076933;28;20846;-63
2023/04/21 00:44:28;;;;;;;38.10;28.67;;;7.00;99.90;;;;;;5078097;28;20457;-64
2023/04/21 00:46:55;;;;;;;35.80;29.00;;;7.00;99.90;;;;;;5078241;28;20467;-64
2023/04/21 00:49:25;;;;;;;40.80;31.17;;;7.10;99.90;;;;;;5078125;28;20465;-64
2023/04/21 00:51:53;;;;;;;41.20;30.53;;;7.00;99.90;;;;;;5078224;28;20859;-65
2023/04/21 00:54:21;;;;;;;42.17;32.90;;;7.10;99.90;;;;;;5078312;28;20848;-63
2023/04/21 00:56:48;;;;;;;38.67;30.37;;;7.10;99.90;;;;;;5077989;28;20489;-64
2023/04/21 00:59:15;;;;;;;42.50;31.10;;;7.10;99.90;;;;;;5078259;28;20504;-64
2023/04/21 01:01:43;;;;;;;41.90;31.77;;;7.10;99.90;;;;;;5077780;28;20556;-64
2023/04/21 01:04:10;;;;;;;43.37;31.47;;;7.20;99.90;;;;;;5077986;28;20551;-64
2023/04/21 01:06:39;;;;;;;41.57;32.30;;;7.20;99.90;;;;;;5078014;28;20465;-63
2023/04/21 01:09:06;;;;;;;38.70;30.33;;;7.20;99.90;;;;;;5078063;28;20564;-63
2023/04/21 01:11:34;;;;;;;40.00;31.20;;;7.20;99.90;;;;;;5077104;28;20462;-63
2023/04/21 01:14:01;;;;;;;36.23;28.83;;;7.20;99.90;;;;;;5077321;28;20534;-63
2023/04/21 01:16:28;;;;;;;35.83;27.23;;;7.20;99.90;;;;;;5077481;28;20461;-63
2023/04/21 01:18:56;;;;;;;35.50;29.77;;;7.20;99.90;;;;;;5078073;28;20813;-64
2023/04/21 01:21:23;;;;;;;34.70;28.50;;;7.20;99.90;;;;;;5077671;28;20472;-66
2023/04/21 01:23:52;;;;;;;32.40;27.73;;;7.20;99.90;;;;;;5077481;28;20461;-67
2023/04/21 01:26:20;;;;;;;34.47;27.80;;;7.20;99.90;;;;;;5077280;28;20457;-67
2023/04/21 01:28:47;;;;;;;36.27;27.53;;;7.20;99.90;;;;;;5077518;28;20492;-68
2023/04/21 01:31:15;;;;;;;33.67;27.33;;;7.20;99.90;;;;;;5077715;28;20461;-67
2023/04/21 01:33:42;;;;;;;42.43;29.80;;;7.20;99.90;;;;;;5077289;28;20561;-67
2023/04/21 01:36:10;;;;;;;35.73;28.60;;;7.30;99.90;;;;;;5077360;28;20584;-67
2023/04/21 01:38:39;;;;;;;38.90;30.00;;;7.30;99.90;;;;;;5077747;28;20814;-67
2023/04/21 01:41:08;;;;;;;39.50;29.13;;;7.20;99.90;;;;;;5077197;28;20863;-66
2023/04/21 01:43:36;;;;;;;38.93;27.37;;;7.20;99.90;;;;;;5076991;28;20970;-66
2023/04/21 01:46:03;;;;;;;33.20;27.83;;;7.30;99.90;;;;;;5076567;28;20508;-66
2023/04/21 01:48:30;;;;;;;36.70;29.10;;;7.20;99.90;;;;;;5076013;28;20473;-66
2023/04/21 01:50:57;;;;;;;35.40;27.50;;;7.20;99.90;;;;;;5077607;28;20896;-66
2023/04/21 01:53:25;;;;;;;36.80;29.20;;;7.30;99.90;;;;;;5073737;28;20755;-66
2023/04/21 01:55:53;;;;;;;35.60;28.60;;;7.30;99.90;;;;;;5076296;28;20490;-65
2023/04/21 01:58:22;;;;;;;36.93;30.00;;;7.30;99.90;;;;;;5076629;28;20527;-65
2023/04/21 02:00:49;;;;;;;37.67;28.37;;;7.30;99.90;;;;;;5077189;28;20461;-65
2023/04/21 02:03:16;;;;;;;36.90;28.90;;;7.30;99.90;;;;;;5077499;28;20568;-65
2023/04/21 02:05:44;;;;;;;33.20;27.63;;;7.30;99.90;;;;;;5076667;28;20547;-65
2023/04/21 02:08:11;;;;;;;37.67;28.30;;;7.30;99.90;;;;;;5077081;28;20548;-65
2023/04/21 02:10:38;;;;;;;36.17;27.53;;;7.30;99.90;;;;;;5077091;28;20489;-65
2023/04/21 02:13:05;;;;;;;36.80;26.93;;;7.30;99.90;;;;;;5077167;28;20951;-65
2023/04/21 02:15:34;;;;;;;35.97;28.50;;;7.30;99.90;;;;;;5076438;28;20543;-65
2023/04/21 02:18:01;;;;;;;37.17;28.63;;;7.30;99.90;;;;;;5076650;28;20465;-64
2023/04/21 02:20:28;;;;;;;37.00;29.87;;;7.20;99.90;;;;;;5076811;28;20465;-65
2023/04/21 02:22:56;;;;;;;41.37;30.17;;;7.30;99.90;;;;;;5076957;28;20471;-64
2023/04/21 02:25:23;;;;;;;41.47;30.47;;;7.30;99.90;;;;;;5076995;28;20552;-64
2023/04/21 02:27:50;;;;;;;38.10;29.63;;;7.30;99.90;;;;;;5076579;28;20489;-64
2023/04/21 02:30:17;;;;;;;42.60;32.07;;;7.30;99.90;;;;;;5076630;28;20555;-64
2023/04/21 02:32:46;;;;;;;38.50;30.50;;;7.30;99.90;;;;;;5077058;28;20492;-64
2023/04/21 02:35:14;;;;;;;37.37;28.70;;;7.30;99.90;;;;;;5076837;28;20497;-64
2023/04/21 02:37:41;;;;;;;35.53;28.70;;;7.30;99.90;;;;;;5076428;28;20901;-64
2023/04/21 02:40:10;;;;;;;37.40;29.67;;;7.30;99.90;;;;;;5076757;28;20560;-64
2023/04/21 02:42:37;;;;;;;39.23;31.03;;;7.40;99.90;;;;;;5076408;28;20449;-65
2023/04/21 02:45:05;;;;;;;37.40;29.63;;;7.40;99.90;;;;;;5076173;28;20555;-64
2023/04/21 02:47:32;;;;;;;40.00;28.87;;;7.40;99.90;;;;;;5076434;28;20561;-64
2023/04/21 02:50:01;;;;;;;37.73;29.80;;;7.40;99.90;;;;;;5076399;28;20555;-64
2023/04/21 02:52:28;;;;;;;38.80;29.47;;;7.30;99.90;;;;;;5076112;28;20469;-64
2023/04/21 02:54:55;;;;;;;39.80;31.63;;;7.30;99.90;;;;;;5076612;28;20778;-64
2023/04/21 02:57:22;;;;;;;41.70;31.00;;;7.30;99.90;;;;;;5079211;28;21112;-64
2023/04/21 02:59:50;;;;;;;40.70;30.67;;;7.30;99.90;;;;;;5080178;28;20468;-64
2023/04/21 03:02:17;;;;;;;38.37;30.60;;;7.30;99.90;;;;;;5080152;28;20484;-64
2023/04/21 03:04:44;;;;;;;36.77;30.07;;;7.40;99.90;;;;;;5079891;28;20465;-64
2023/04/21 03:07:13;;;;;;;37.27;29.30;;;7.40;99.90;;;;;;5080196;28;20519;-64
2023/04/21 03:09:41;;;;;;;46.00;29.87;;;7.40;99.90;;;;;;5079672;28;20467;-64
2023/04/21 03:12:08;;;;;;;40.40;30.13;;;7.40;99.90;;;;;;5079770;28;20560;-64
2023/04/21 03:14:36;;;;;;;38.60;29.33;;;7.40;99.90;;;;;;5080153;28;20468;-64
2023/04/21 03:17:03;;;;;;;37.43;29.97;;;7.40;99.90;;;;;;5079850;28;20522;-64
2023/04/21 03:19:30;;;;;;;38.90;30.20;;;7.40;99.90;;;;;;5079417;28;20559;-64
2023/04/21 03:21:57;;;;;;;41.80;31.30;;;7.40;99.90;;;;;;5080012;28;20958;-63
2023/04/21 03:24:26;;;;;;;42.43;33.60;;;7.50;99.90;;;;;;5079937;28;20530;-64
2023/04/21 03:26:55;;;;;;;38.97;30.73;;;7.50;99.90;;;;;;5079823;28;20535;-64
2023/04/21 03:29:22;;;;;;;39.33;29.40;;;7.50;99.90;;;;;;5080173;28;22566;-63
2023/04/21 03:31:50;;;;;;;39.87;30.80;;;7.50;99.90;;;;;;5079651;28;20573;-63
2023/04/21 03:34:17;;;;;;;43.40;31.60;;;7.50;99.90;;;;;;5079434;28;20508;-63
2023/04/21 03:36:44;;;;;;;40.30;31.50;;;7.50;99.90;;;;;;5079473;28;20588;-64
2023/04/21 03:39:11;;;;;;;37.87;28.37;;;7.60;99.90;;;;;;5080019;28;20456;-64
2023/04/21 03:41:40;;;;;;;36.80;29.73;;;7.50;99.90;;;;;;5079343;28;20461;-64
2023/04/21 03:44:07;;;;;;;37.13;30.17;;;7.50;99.90;;;;;;5079848;28;20457;-64
2023/04/21 03:46:35;;;;;;;39.50;30.60;;;7.50;99.90;;;;;;5079701;28;20945;-64
2023/04/21 03:49:02;;;;;;;37.43;28.13;;;7.50;99.90;;;;;;5079515;28;20874;-64
2023/04/21 03:51:31;;;;;;;41.70;32.40;;;7.50;99.90;;;;;;5078875;28;20499;-64
2023/04/21 03:53:58;;;;;;;38.80;31.73;;;7.50;99.90;;;;;;5079203;28;20469;-64
2023/04/21 03:56:26;;;;;;;37.33;29.90;;;7.50;99.90;;;;;;5079007;28;20493;-64
2023/04/21 03:58:54;;;;;;;39.57;31.00;;;7.50;99.90;;;;;;5079297;28;20504;-63
2023/04/21 04:01:22;;;;;;;36.80;29.60;;;7.50;99.90;;;;;;5079235;28;20461;-63
2023/04/21 04:03:49;;;;;;;37.07;29.57;;;7.50;99.90;;;;;;5078757;28;20552;-63
2023/04/21 04:06:16;;;;;;;41.70;31.00;;;7.50;99.90;;;;;;5079276;28;20809;-63
2023/04/21 04:08:44;;;;;;;37.70;29.27;;;7.50;99.90;;;;;;5078068;28;20436;-63
2023/04/21 04:11:11;;;;;;;37.60;29.60;;;7.50;99.90;;;;;;5079298;28;20891;-63
2023/04/21 04:13:38;;;;;;;37.23;30.50;;;7.40;99.90;;;;;;5078726;28;20501;-63
2023/04/21 04:16:07;;;;;;;39.67;31.20;;;7.40;99.90;;;;;;5078485;28;20580;-63
2023/04/21 04:18:35;;;;;;;40.80;31.83;;;7.40;99.90;;;;;;5078720;28;20560;-63
2023/04/21 04:21:06;;;;;;;36.90;29.50;;;7.40;99.90;;;;;;5079104;28;20564;-63
2023/04/21 04:23:33;;;;;;;39.60;31.00;;;7.30;99.90;;;;;;5079052;28;20475;-63
2023/04/21 04:26:03;;;;;;;39.87;29.47;;;7.30;99.90;;;;;;5078866;28;20901;-63
2023/04/21 04:28:30;;;;;;;39.73;31.43;;;7.30;99.90;;;;;;5078275;28;20495;-63
2023/04/21 04:30:59;;;;;;;37.10;31.00;;;7.30;99.90;;;;;;5078894;28;20559;-63
2023/04/21 04:33:28;;;;;;;39.87;29.40;;;7.30;99.90;;;;;;5077689;28;20944;-63
2023/04/21 04:35:55;;;;;;;35.47;28.33;;;7.20;99.90;;;;;;5076874;28;20960;-63
2023/04/21 04:38:23;;;;;;;39.00;30.17;;;7.20;99.90;;;;;;5076648;28;20556;-63
2023/04/21 04:40:54;;;;;;;37.60;28.43;;;7.20;99.90;;;;;;5077054;28;20775;-63
2023/04/21 04:43:21;;;;;;;42.53;30.80;;;7.10;99.90;;;;;;5077392;28;20568;-63
2023/04/21 04:45:49;;;;;;;42.43;29.57;;;7.10;99.90;;;;;;5076692;28;20460;-63
2023/04/21 04:48:16;;;;;;;42.87;30.27;;;7.10;99.90;;;;;;5076625;28;20467;-63
2023/04/21 04:50:45;;;;;;;37.97;29.20;;;7.10;99.90;;;;;;5077101;28;20501;-63
2023/04/21 04:53:12;;;;;;;36.80;29.70;;;7.10;99.90;;;;;;5077177;28;20461;-63
2023/04/21 04:55:39;;;;;;;42.90;30.60;;;7.00;99.90;;;;;;5077001;28;20872;-63
2023/04/21 04:58:06;;;;;;;41.70;30.20;;;7.00;99.90;;;;;;5077518;28;20497;-63
2023/04/21 05:00:34;;;;;;;41.47;31.20;;;6.90;99.90;;;;;;5076741;28;20453;-63
2023/04/21 05:03:01;;;;;;;40.73;29.57;;;6.90;99.90;;;;;;5076315;28;20760;-63
2023/04/21 05:05:28;;;;;;;39.27;29.30;;;6.90;99.90;;;;;;5076059;28;20449;-63
2023/04/21 05:07:57;;;;;;;39.40;29.67;;;6.90;99.90;;;;;;5076213;28;20497;-63
2023/04/21 05:10:24;;;;;;;43.40;31.63;;;6.80;99.90;;;;;;5075507;28;20776;-63
2023/04/21 05:12:51;;;;;;;44.60;30.77;;;6.90;99.90;;;;;;5076671;28;20464;-63
2023/04/21 05:15:19;;;;;;;37.00;27.33;;;6.90;99.90;;;;;;5075961;28;20527;-63
2023/04/21 05:17:46;;;;;;;37.10;28.40;;;6.90;99.90;;;;;;5074898;28;20463;-63
2023/04/21 05:20:13;;;;;;;37.17;28.53;;;7.00;99.90;;;;;;5072199;28;20465;-63
2023/04/21 05:22:41;;;;;;;54.07;30.30;;;7.00;99.90;;;;;;5055046;28;20437;-58
2023/04/21 05:25:13;;;;;;;40.40;30.50;;;7.10;99.90;;;;;;5056360;28;20769;-62
2023/04/21 05:27:40;;;;;;;41.00;31.37;;;7.20;99.90;;;;;;5056048;28;20773;-61
2023/04/21 05:30:09;;;;;;;39.10;30.10;;;7.30;99.90;;;;;;5056719;28;20458;-61
2023/04/21 05:32:37;;;;;;;39.33;29.57;;;7.40;99.90;;;;;;5056335;28;20884;-61
2023/04/21 05:35:05;;;;;;;44.70;31.37;;;7.50;99.90;;;;;;5056606;28;20498;-61
2023/04/21 05:37:32;;;;;;;36.70;27.97;;;7.60;99.90;;;;;;5056661;28;20493;-59
2023/04/21 05:39:59;;;;;;;43.27;31.50;;;7.80;99.90;;;;;;5056465;28;20458;-61
2023/04/21 05:42:28;;;;;;;37.70;29.60;;;7.80;99.90;;;;;;5055953;28;20658;-62
2023/04/21 05:44:55;;;;;;;39.30;30.43;;;7.90;99.90;;;;;;5055655;28;20463;-61
2023/04/21 05:47:22;;;;;;;41.90;31.97;;;8.00;99.90;;;;;;5054571;28;20502;-62
2023/04/21 05:49:52;;;;;;;38.60;32.10;;;8.00;99.90;;;;;;5054568;28;20564;-62
2023/04/21 05:52:20;;;;;;;38.73;28.43;;;8.10;99.90;;;;;;5054060;28;20678;-61
2023/04/21 05:54:47;;;;;;;36.37;29.87;;;8.20;99.90;;;;;;5055496;28;20473;-62
2023/04/21 05:57:15;;;;;;;37.03;28.63;;;8.30;99.90;;;;;;5055435;28;20489;-62
2023/04/21 05:59:44;;;;;;;35.37;27.40;;;8.40;99.90;;;;;;5057053;28;20489;-62
2023/04/21 06:02:11;;;;;;;41.50;28.23;;;8.50;99.90;;;;;;5061096;28;20446;-62
2023/04/21 06:04:38;;;;;;;35.57;27.07;;;8.70;99.90;;;;;;5078048;28;20548;-62
2023/04/21 06:07:07;;;;;;;34.43;26.60;;;8.80;99.90;;;;;;5078869;28;20453;-62
2023/04/21 06:09:35;;;;;;;30.03;25.67;;;9.00;99.90;;;;;;5078690;28;20466;-62
2023/04/21 06:12:02;;;;;;;27.97;22.97;;;9.20;99.90;;;;;;5077990;28;20453;-62
2023/04/21 06:14:29;;;;;;;26.93;22.00;;;9.30;99.90;;;;;;5077789;28;20477;-62
2023/04/21 06:16:58;;;;;;;27.30;21.93;;;9.30;99.90;;;;;;5077933;28;20572;-62
2023/04/21 06:19:25;;;;;;;24.87;20.90;;;9.50;99.90;;;;;;5072063;28;20474;-62
2023/04/21 06:21:52;;;;;;;24.13;21.20;;;9.60;99.90;;;;;;5076881;28;20535;-62
2023/04/21 06:24:23;;;;;;;23.30;20.67;;;9.70;99.90;;;;;;5076920;28;20468;-62
2023/04/21 06:26:52;;;;;;;24.57;21.47;;;9.90;99.90;;;;;;5076041;28;20561;-62
2023/04/21 06:29:19;;;;;;;23.10;20.40;;;10.20;99.90;;;;;;5076052;28;20481;-62
2023/04/21 06:31:46;;;;;;;22.80;20.30;;;10.30;99.90;;;;;;5079774;28;20838;-63
2023/04/21 06:34:15;;;;;;;22.50;20.10;;;10.30;99.90;;;;;;5080558;28;20958;-63
2023/04/21 06:36:43;;;;;;;20.57;18.37;;;10.30;99.90;;;;;;5080085;28;20493;-63
2023/04/21 06:39:10;;;;;;;21.57;18.63;;;10.20;99.90;;;;;;5081520;28;20559;-63
2023/04/21 06:41:37;;;;;;;21.63;18.30;;;10.20;99.90;;;;;;5080386;28;20906;-63
2023/04/21 06:44:04;;;;;;;22.70;19.60;;;10.20;99.90;;;;;;5078059;28;20453;-63
2023/04/21 06:46:31;;;;;;;21.93;19.53;;;10.20;99.90;;;;;;5079701;28;20823;-63
2023/04/21 06:48:59;;;;;;;23.47;18.77;;;10.30;99.90;;;;;;5080370;28;20555;-63
2023/04/21 06:51:27;;;;;;;23.77;19.80;;;10.30;99.90;;;;;;5080246;28;20523;-63
2023/04/21 06:53:54;;;;;;;21.97;19.40;;;10.40;99.90;;;;;;5080002;28;20908;-63
2023/04/21 06:56:22;;;;;;;23.10;19.97;;;10.40;99.90;;;;;;5079026;28;20521;-63
2023/04/21 06:58:49;;;;;;;22.43;20.03;;;10.40;99.90;;;;;;5076600;28;20459;-63
2023/04/21 07:01:16;;;;;;;21.37;19.07;;;10.50;99.90;;;;;;5078226;28;20510;-63
2023/04/21 07:03:43;;;;;;;25.03;20.73;;;10.60;99.90;;;;;;5079209;28;20556;-63
2023/04/21 07:06:11;;;;;;;21.57;19.13;;;10.60;99.90;;;;;;5080345;28;20544;-63
2023/04/21 07:08:40;;;;;;;22.57;20.17;;;10.60;99.90;;;;;;5080212;28;20806;-63
2023/04/21 07:11:07;;;;;;;20.70;18.50;;;10.60;99.90;;;;;;5080724;28;20472;-63
2023/04/21 07:13:34;;;;;;;21.47;19.17;;;10.70;99.90;;;;;;5080971;28;20884;-63
2023/04/21 07:16:02;;;;;;;22.23;18.90;;;10.70;99.90;;;;;;5080000;28;20483;-63
2023/04/21 07:18:29;;;;;;;22.13;19.53;;;10.70;99.90;;;;;;5080026;28;20461;-63
2023/04/21 07:20:56;;;;;;;23.17;20.27;;;10.70;99.90;;;;;;5078359;28;20464;-63
2023/04/21 07:23:23;;;;;;;22.77;20.37;;;10.70;99.90;;;;;;5078895;28;20944;-63
2023/04/21 07:25:52;;;;;;;22.30;20.00;;;10.70;99.90;;;;;;5078689;28;20461;-63
2023/04/21 07:28:19;;;;;;;22.27;19.87;;;10.70;99.90;;;;;;5078454;28;20483;-63
2023/04/21 07:30:46;;;;;;;21.60;19.40;;;10.70;99.90;;;;;;5079200;28;20548;-62
2023/04/21 07:33:14;;;;;;;30.23;23.10;;;10.70;99.90;;;;;;5078648;28;20915;-63
2023/04/21 07:35:41;;;;;;;27.37;24.43;;;10.70;99.90;;;;;;5079735;28;20576;-63
2023/04/21 07:38:08;;;;;;;29.40;25.13;;;10.60;99.90;;;;;;5080303;28;20583;-63
2023/04/21 07:40:36;;;;;;;30.90;25.57;;;10.50;99.90;;;;;;5079965;28;20869;-63
2023/04/21 07:43:04;;;;;;;33.20;27.47;;;10.50;99.90;;;;;;5078897;28;20502;-63
2023/04/21 07:45:32;;;;;;;32.80;25.77;;;10.40;99.90;;;;;;5079924;28;20499;-63
2023/04/21 07:47:59;;;;;;;34.90;29.50;;;10.20;99.90;;;;;;5080261;28;20929;-63
2023/04/21 07:50:26;;;;;;;33.53;28.60;;;10.10;99.90;;;;;;5078399;28;20436;-62
2023/04/21 07:52:53;;;;;;;34.40;28.60;;;10.10;99.90;;;;;;5079773;28;20459;-63
2023/04/21 07:55:21;;;;;;;34.30;27.70;;;10.10;99.90;;;;;;5080258;28;20531;-63
2023/04/21 07:57:48;;;;;;;34.00;28.23;;;10.20;99.90;;;;;;5078809;28;20510;-63
2023/04/21 08:00:17;;;;;;;32.07;27.00;;;10.30;99.90;;;;;;5079416;28;20465;-63
2023/04/21 08:02:45;;;;;;;34.50;28.47;;;10.40;99.90;;;;;;5079093;28;20468;-63
2023/04/21 08:05:12;;;;;;;33.90;28.50;;;10.40;99.90;;;;;;5079984;28;20894;-63
2023/04/21 08:07:39;;;;;;;32.50;27.40;;;10.60;99.90;;;;;;5077957;28;20482;-63
2023/04/21 08:10:08;;;;;;;32.07;27.13;;;10.60;1.00;;;;;;5076704;28;20460;-63
2023/04/21 08:12:35;;;;;;;32.30;27.60;;;10.70;99.90;;;;;;5074495;28;20470;-63
2023/04/21 08:15:06;;;;;;;33.27;28.13;;;10.80;1.00;;;;;;5076112;28;20930;-62
2023/04/21 08:17:35;;;;;;;30.93;27.47;;;11.00;99.90;;;;;;5077405;28;20584;-62
2023/04/21 08:20:02;;;;;;;34.30;29.00;;;11.20;1.00;;;;;;5077460;28;20750;-63
2023/04/21 08:22:30;;;;;;;31.27;27.87;;;11.30;17.00;;;;;;5076777;28;20548;-63
2023/04/21 08:24:57;;;;;;;31.17;26.70;;;11.40;99.90;;;;;;5076859;28;20457;-63
2023/04/21 08:27:24;;;;;;;33.27;27.67;;;11.40;99.90;;;;;;5077904;28;20947;-63
2023/04/21 08:29:51;;;;;;;31.90;28.37;;;11.50;99.90;;;;;;5077633;28;20457;-62
2023/04/21 08:32:22;;;;;;;33.90;28.87;;;11.50;1.00;;;;;;5078819;28;20932;-62
2023/04/21 08:34:52;;;;;;;34.77;29.37;;;11.50;1.00;;;;;;5078254;28;20461;-62
2023/04/21 08:37:20;;;;;;;31.20;27.73;;;11.50;99.90;;;;;;5077777;28;20485;-63
2023/04/21 08:39:49;;;;;;;31.57;27.07;;;11.60;99.90;;;;;;5077057;28;20469;-62
2023/04/21 08:42:17;;;;;;;30.03;27.00;;;11.70;99.90;;;;;;5077865;28;20960;-62
2023/04/21 08:44:45;;;;;;;29.93;26.23;;;11.80;99.90;;;;;;5077082;28;20552;-62
2023/04/21 08:47:13;;;;;;;29.67;26.50;;;11.90;16.90;;;;;;5076937;28;20969;-62
2023/04/21 08:49:43;;;;;;;31.00;25.40;;;12.10;72.70;;;;;;5077373;28;20467;-62
2023/04/21 08:52:13;;;;;;;31.10;26.00;;;12.20;39.50;;;;;;5076534;28;20801;-62
2023/04/21 08:54:41;;;;;;;29.67;26.43;;;12.20;4.90;;;;;;5076446;28;20768;-62
2023/04/21 08:57:08;;;;;;;31.50;27.07;;;12.10;1.00;;;;;;5076416;28;20484;-61
2023/04/21 08:59:35;;;;;;;29.07;25.73;;;12.20;3.50;;;;;;5075428;28;20458;-61
2023/04/21 09:02:10;;;;;;;33.20;25.13;;;12.30;7.40;;;;;;5075319;28;20559;-61
2023/04/21 09:04:39;;;;;;;33.83;27.07;;;12.20;1.00;;;;;;5074445;28;20461;-61
2023/04/21 09:07:07;;;;;;;33.03;28.10;;;12.20;1.00;;;;;;5075404;28;20545;-61
2023/04/21 09:09:52;;;;;;;31.87;27.30;;;12.20;1.00;;;;;;5075292;28;20886;-62
2023/04/21 09:12:20;;;;;;;31.40;26.13;;;12.20;1.00;;;;;;5075635;28;21085;-62
2023/04/21 09:14:47;;;;;;;32.53;27.60;;;12.00;1.00;;;;;;5076868;28;20474;-62
2023/04/21 09:17:17;;;;;;;31.30;26.20;;;11.80;1.00;;;;;;5076196;28;20499;-62
2023/04/21 09:19:44;;;;;;;31.20;27.90;;;11.80;18.00;;;;;;5075943;28;20461;-61
2023/04/21 09:22:15;;;;;;;30.80;26.40;;;11.80;78.30;;;;;;5076149;28;20496;-61
2023/04/21 09:24:47;;;;;;;33.23;29.37;;;11.80;98.70;;;;;;5074783;28;20468;-61
2023/04/21 09:27:16;;;;;;;32.80;27.37;;;11.70;99.90;;;;;;5075136;28;20514;-61
2023/04/21 09:29:48;;;;;;;34.50;28.83;;;11.70;99.90;;;;;;5075825;28;20457;-61
2023/04/21 09:32:19;;;;;;;30.07;25.90;;;11.80;99.90;;;;;;5076446;28;20556;-61
2023/04/21 09:34:47;;;;;;;30.53;27.00;;;11.90;99.90;;;;;;5073633;28;20896;-61
2023/04/21 09:37:15;;;;;;;34.47;27.60;;;12.00;99.90;;;;;;5076172;28;20485;-61
2023/04/21 09:39:47;;;;;;;34.07;28.20;;;12.00;99.90;;;;;;5069075;28;20491;-60
2023/04/21 09:42:14;;;;;;;30.77;27.47;;;12.00;99.90;;;;;;5075051;28;20555;-61
2023/04/21 09:44:41;;;;;;;35.87;28.43;;;12.00;60.80;;;;;;5074324;28;20523;-61
2023/04/21 09:47:12;;;;;;;30.57;27.27;;;12.20;94.50;;;;;;5076568;28;21019;-61
2023/04/21 09:49:43;;;;;;;29.43;26.30;;;12.00;11.00;;;;;;5076514;28;20506;-61
2023/04/21 09:52:13;;;;;;;35.10;29.47;;;12.20;51.60;;;;;;5075444;28;20465;-61
2023/04/21 09:54:50;;;;;;;36.20;29.83;;;12.20;22.40;;;;;;5072815;28;20766;-60
2023/04/21 09:57:23;;;;;;;34.87;29.73;;;12.30;17.00;;;;;;5074618;28;20489;-61
2023/04/21 09:59:56;;;;;;;34.43;28.53;;;12.30;45.00;;;;;;5074412;28;20538;-62
2023/04/21 10:02:26;;;;;;;32.80;28.23;;;12.20;1.00;;;;;;5074081;28;20870;-61
2023/04/21 10:04:54;;;;;;;37.33;31.17;;;12.20;19.40;;;;;;5073813;28;20461;-62
2023/04/21 10:07:21;;;;;;;34.13;30.43;;;12.20;15.30;;;;;;5074756;28;20452;-62
2023/04/21 10:09:53;;;;;;;35.00;30.03;;;12.00;30.30;;;;;;5075621;28;20941;-61
2023/04/21 10:12:21;;;;;;;32.27;28.73;;;12.10;99.90;;;;;;5076093;28;20468;-60
2023/04/21 10:14:52;;;;;;;31.30;27.03;;;12.10;99.90;;;;;;5076613;28;20461;-60
2023/04/21 10:17:22;;;;;;;33.80;30.03;;;12.30;99.90;;;;;;5077352;28;20768;-60
2023/04/21 10:19:52;;;;;;;32.00;27.03;;;12.60;99.90;;;;;;5076915;28;20462;-60
2023/04/21 10:22:30;;;;;;;27.20;24.30;;;12.70;99.90;;;;;;5077161;28;20924;-60
2023/04/21 10:25:00;;;;;;;32.53;28.60;;;12.90;99.90;;;;;;5076811;28;20507;-60
2023/04/21 10:27:36;;;;;;;29.97;26.70;;;13.00;29.60;;;;;;5074127;28;20496;-60
2023/04/21 10:30:19;;;;;;;32.27;26.27;;;13.00;13.40;;;;;;5090538;28;20495;-60
2023/04/21 10:32:46;;;;;;;28.83;24.57;;;13.10;1.00;;;;;;5097290;28;20467;-59
2023/04/21 10:35:16;;;;;;;27.93;24.27;;;13.20;1.00;;;;;;5088670;28;20500;-60
2023/04/21 10:37:43;;;;;;;26.83;24.00;;;13.20;1.00;;;;;;5076101;28;20478;-59
2023/04/21 10:40:39;;;;;;;28.13;24.27;;;13.50;1.00;;;;;;5076047;28;20540;-60
2023/04/21 10:43:06;;;;;;;28.97;24.20;;;13.70;1.00;;;;;;5028174;28;20548;-63
2023/04/21 10:45:33;;;;;;;27.10;24.30;;;13.70;1.00;;;;;;5073552;28;20555;-62
2023/04/21 10:48:02;;;;;;;27.47;22.67;;;13.80;1.00;;;;;;5074093;28;20458;-62
2023/04/21 10:50:31;;;;;;;25.37;22.50;;;13.80;1.00;;;;;;5074218;28;20881;-63
2023/04/21 10:53:08;;;;;;;25.30;22.77;;;14.00;1.00;;;;;;5074346;28;20453;-62
2023/04/21 10:55:35;;;;;;;29.53;22.60;;;14.20;1.00;;;;;;5073083;28;20469;-62
2023/04/21 10:58:07;;;;;;;26.30;21.03;;;14.50;1.00;;;;;;5074713;28;20493;-61
2023/04/21 11:00:37;;;;;;;21.70;19.33;;;14.70;1.00;;;;;;5074703;28;20902;-62
2023/04/21 11:03:06;;;;;;;22.53;19.93;;;14.80;1.00;;;;;;5070001;28;20559;-62
2023/04/21 11:05:39;;;;;;;22.37;19.90;;;14.80;1.00;;;;;;5073849;28;20775;-62
2023/04/21 11:08:11;;;;;;;23.80;21.20;;;15.20;1.00;;;;;;5073445;28;20461;-61
2023/04/21 11:10:47;;;;;;;24.60;21.67;;;15.30;1.00;;;;;;5075046;28;20468;-61
2023/04/21 11:13:16;;;;;;;24.30;21.37;;;15.50;1.00;;;;;;5074023;28;20432;-61
2023/04/21 11:15:56;;;;;;;22.53;20.13;;;15.80;1.00;;;;;;5071826;28;20882;-61
2023/04/21 11:18:33;;;;;;;22.70;20.30;;;16.10;1.00;;;;;;5075635;28;20488;-61
2023/04/21 11:21:12;;;;;;;22.73;20.37;;;16.40;1.00;;;;;;5078272;28;20563;-61
2023/04/21 11:23:47;;;;;;;22.80;20.47;;;16.50;1.00;;;;;;5077314;28;20469;-62
2023/04/21 11:26:15;;;;;;;24.93;22.20;;;16.60;1.00;;;;;;5078164;28;20457;-61
2023/04/21 11:28:47;;;;;;;21.90;19.60;;;16.60;1.00;;;;;;5077808;28;20477;-61
2023/04/21 11:31:14;;;;;;;23.30;20.90;;;16.80;1.00;;;;;;5077054;28;20906;-62
2023/04/21 11:33:41;;;;;;;22.37;19.97;;;16.90;1.00;;;;;;5076389;28;20499;-63
2023/04/21 11:36:09;;;;;;;21.90;19.60;;;16.80;1.00;;;;;;5075279;28;20565;-62
2023/04/21 11:38:40;;;;;;;22.70;20.40;;;16.60;1.00;;;;;;5077869;28;20489;-62
2023/04/21 11:41:08;;;;;;;28.40;23.60;;;16.50;1.00;;;;;;5078526;28;20766;-62
2023/04/21 11:43:35;;;;;;;22.00;19.70;;;16.60;1.00;;;;;;5078336;28;20461;-62
2023/04/21 11:46:22;;;;;;;21.20;19.03;;;16.40;1.00;;;;;;5077083;28;20504;-62
2023/04/21 11:48:59;;;;;;;21.47;19.27;;;16.10;1.00;;;;;;5077511;28;20467;-63
2023/04/21 11:51:27;;;;;;;21.63;19.10;;;15.80;1.00;;;;;;5077359;28;20457;-60
2023/04/21 11:53:55;;;;;;;19.67;17.67;;;15.60;1.00;;;;;;5076733;28;20466;-63
2023/04/21 11:56:22;;;;;;;22.73;18.37;;;15.40;1.00;;;;;;5073863;28;20469;-61
2023/04/21 11:58:51;;;;;;;22.90;19.50;;;15.30;1.00;;;;;;5075442;28;20484;-62
2023/04/21 12:01:21;;;;;;;21.10;18.80;;;15.30;1.00;;;;;;5077711;28;20461;-59
2023/04/21 12:03:52;;;;;;;19.80;17.80;;;15.20;1.00;;;;;;5077179;28;20458;-61
2023/04/21 12:06:25;;;;;;;20.70;18.50;;;15.00;1.00;;;;;;5077616;28;20473;-61
2023/04/21 12:08:57;;;;;;;20.17;18.17;;;15.10;1.00;;;;;;5076991;28;20453;-61
2023/04/21 12:11:27;;;;;;;18.80;16.90;;;15.20;1.00;;;;;;5074983;28;20867;-63
2023/04/21 12:13:56;;;;;;;20.70;17.67;;;15.30;1.00;;;;;;5077348;28;20510;-60
2023/04/21 12:16:28;;;;;;;21.50;18.60;;;15.40;1.00;;;;;;5077609;28;20484;-60
2023/04/21 12:18:56;;;;;;;20.97;18.77;;;15.50;1.00;;;;;;5077434;28;20485;-59
2023/04/21 12:21:27;;;;;;;19.30;17.30;;;15.90;1.00;;;;;;5074900;28;20466;-60
2023/04/21 12:23:55;;;;;;;19.77;17.80;;;16.20;1.00;;;;;;5076316;28;20548;-61
2023/04/21 12:26:22;;;;;;;19.57;17.57;;;16.60;1.00;;;;;;5076176;28;20556;-61
2023/04/21 12:28:50;;;;;;;19.63;17.63;;;16.90;1.00;;;;;;5075852;28;20562;-62
2023/04/21 12:31:18;;;;;;;17.80;16.00;;;17.10;1.00;;;;;;5077239;28;20457;-61
2023/04/21 12:33:47;;;;;;;17.00;15.40;;;17.00;99.90;;;;;;5074585;28;20823;-62
2023/04/21 12:36:15;;;;;;;16.47;14.97;;;16.80;99.90;;;;;;5076416;28;20461;-62
2023/04/21 12:38:43;;;;;;;19.00;17.10;;;16.90;99.90;;;;;;5076595;28;20942;-58